createdAt,value
2019-05-09T00:02:33.543Z,8.37
2019-05-09T00:05:03.587Z,8.29
2019-05-09T00:07:33.793Z,8.22
2019-05-09T00:10:04.043Z,8.17
2019-05-09T00:12:33.757Z,8.07
2019-05-09T00:15:04.488Z,8.02
2019-05-09T00:17:34.214Z,8.00
2019-05-09T00:20:13.516Z,7.95
2019-05-09T00:22:43.578Z,7.84
2019-05-09T00:25:13.275Z,7.85
2019-05-09T00:27:43.537Z,7.77
2019-05-09T00:30:14.015Z,7.70
2019-05-09T00:32:44.187Z,7.68
2019-05-09T00:35:28.568Z,7.53
2019-05-09T00:38:04.420Z,7.47
2019-05-09T00:40:34.327Z,7.42
2019-05-09T00:43:04.166Z,7.57
2019-05-09T00:46:04.109Z,7.56
2019-05-09T00:48:39.582Z,7.61
2019-05-09T00:51:09.030Z,7.64
2019-05-09T00:53:38.469Z,7.58
2019-05-09T00:56:07.908Z,7.54
2019-05-09T00:58:37.346Z,7.53
2019-05-09T01:01:06.931Z,7.41
2019-05-09T01:03:36.507Z,7.41
2019-05-09T01:06:05.933Z,7.35
2019-05-09T01:08:35.353Z,7.20
2019-05-09T01:11:12.084Z,7.14
2019-05-09T01:13:36.004Z,7.12
2019-05-09T01:16:05.432Z,7.19
2019-05-09T01:18:35.515Z,7.19
2019-05-09T01:21:04.932Z,7.18
2019-05-09T01:23:34.620Z,7.28
2019-05-09T01:26:04.205Z,7.43
2019-05-09T01:28:34.120Z,7.55
2019-05-09T01:31:04.294Z,7.64
2019-05-09T01:33:53.401Z,7.78
2019-05-09T01:36:23.516Z,7.92
2019-05-09T01:38:53.977Z,7.92
2019-05-09T01:41:30.309Z,7.95
2019-05-09T01:43:55.025Z,7.96
2019-05-09T01:46:24.632Z,7.86
2019-05-09T01:48:54.118Z,7.66
2019-05-09T01:51:23.593Z,7.50
2019-05-09T01:53:54.704Z,7.35
2019-05-09T01:56:24.119Z,7.24
2019-05-09T01:58:54.086Z,7.06
2019-05-09T02:01:24.289Z,6.96
2019-05-09T02:03:53.958Z,6.90
2019-05-09T02:06:24.378Z,6.80
2019-05-09T02:08:54.620Z,6.71
2019-05-09T02:11:39.113Z,6.65
2019-05-09T02:13:55.556Z,6.61
2019-05-09T02:16:33.829Z,6.58
2019-05-09T02:19:24.108Z,6.51
2019-05-09T02:21:53.757Z,6.42
2019-05-09T02:24:23.530Z,6.33
2019-05-09T02:26:53.373Z,6.26
2019-05-09T02:29:23.284Z,6.18
2019-05-09T02:31:54.689Z,6.17
2019-05-09T02:34:25.052Z,6.20
2019-05-09T02:36:54.786Z,6.21
2019-05-09T02:39:24.353Z,6.17
2019-05-09T02:42:04.782Z,6.17
2019-05-09T02:44:29.017Z,6.15
2019-05-09T02:47:09.019Z,6.16
2019-05-09T02:49:39.194Z,6.16
2019-05-09T02:52:09.112Z,6.07
2019-05-09T02:54:39.413Z,6.07
2019-05-09T02:57:09.566Z,6.06
2019-05-09T02:59:50.310Z,6.09
2019-05-09T03:02:38.381Z,6.08
2019-05-09T03:05:08.866Z,6.11
2019-05-09T03:07:50.678Z,6.10
2019-05-09T03:10:20.913Z,6.10
2019-05-09T03:12:50.707Z,6.13
2019-05-09T03:15:20.376Z,6.14
2019-05-09T03:17:50.193Z,6.13
2019-05-09T03:20:44.834Z,6.15
2019-05-09T03:23:14.393Z,6.18
2019-05-09T03:25:43.862Z,6.21
2019-05-09T03:28:35.207Z,6.27
2019-05-09T03:31:09.129Z,6.30
2019-05-09T03:33:40.330Z,6.44
2019-05-09T03:36:07.811Z,6.51
2019-05-09T03:38:37.786Z,6.66
2019-05-09T03:41:08.476Z,6.78
2019-05-09T03:43:38.216Z,6.86
2019-05-09T03:46:17.934Z,6.95
2019-05-09T03:48:49.875Z,7.07
2019-05-09T03:51:19.396Z,7.22
2019-05-09T03:53:48.837Z,7.37
2019-05-09T03:56:21.693Z,7.58
2019-05-09T03:58:51.263Z,7.62
2019-05-09T04:01:20.712Z,7.79
2019-05-09T04:03:50.335Z,7.95
2019-05-09T04:06:19.800Z,8.11
2019-05-09T04:08:49.250Z,8.29
2019-05-09T04:11:18.725Z,8.42
2019-05-09T04:13:54.182Z,8.56
2019-05-09T04:16:23.630Z,8.73
2019-05-09T04:18:53.043Z,8.95
2019-05-09T04:21:22.668Z,9.24
2019-05-09T04:23:52.255Z,10.61
2019-05-09T04:26:52.737Z,13.44
2019-05-09T04:29:22.350Z,15.73
2019-05-09T04:31:51.789Z,17.78
2019-05-09T04:34:21.295Z,19.26
2019-05-09T04:36:50.739Z,20.14
2019-05-09T04:39:23.699Z,21.14
2019-05-09T04:41:55.138Z,21.94
2019-05-09T04:44:30.477Z,22.77
2019-05-09T04:47:03.670Z,23.17
2019-05-09T04:49:39.574Z,23.87
2019-05-09T04:52:02.438Z,23.31
2019-05-09T04:54:31.886Z,24.02
2019-05-09T04:57:01.357Z,24.47
2019-05-09T04:59:31.437Z,25.04
2019-05-09T05:02:11.940Z,25.61
2019-05-09T05:04:41.384Z,25.25
2019-05-09T05:07:10.842Z,25.22
2019-05-09T05:09:40.379Z,25.05
2019-05-09T05:12:09.822Z,25.56
2019-05-09T05:14:39.315Z,25.82
2019-05-09T05:17:11.317Z,25.08
2019-05-09T05:19:40.048Z,25.10
2019-05-09T05:22:28.551Z,25.70
2019-05-09T05:25:00.926Z,26.12
2019-05-09T05:27:30.472Z,26.32
2019-05-09T05:29:59.899Z,26.57
2019-05-09T05:32:35.094Z,26.58
2019-05-09T05:35:09.550Z,26.16
2019-05-09T05:37:38.993Z,26.71
2019-05-09T05:40:08.655Z,27.31
2019-05-09T05:42:38.824Z,26.35
2019-05-09T05:45:08.685Z,26.31
2019-05-09T05:47:49.072Z,26.61
2019-05-09T05:50:18.489Z,26.58
2019-05-09T05:52:48.037Z,26.68
2019-05-09T05:55:18.257Z,26.62
2019-05-09T05:57:47.999Z,27.30
2019-05-09T06:00:19.994Z,28.18
2019-05-09T06:02:49.533Z,28.62
2019-05-09T06:05:19.100Z,28.32
2019-05-09T06:07:48.664Z,27.75
2019-05-09T06:10:18.829Z,27.91
2019-05-09T06:12:48.439Z,27.85
2019-05-09T06:15:18.372Z,27.68
2019-05-09T06:17:48.565Z,27.36
2019-05-09T06:20:18.092Z,27.58
2019-05-09T06:22:47.880Z,27.69
2019-05-09T06:25:20.916Z,27.30
2019-05-09T06:27:48.969Z,27.47
2019-05-09T06:30:28.131Z,27.20
2019-05-09T06:32:58.106Z,26.61
2019-05-09T06:35:28.423Z,25.30
2019-05-09T06:37:58.901Z,24.10
2019-05-09T06:40:28.937Z,23.16
2019-05-09T06:43:00.120Z,22.41
2019-05-09T06:45:41.711Z,21.71
2019-05-09T06:48:11.154Z,21.07
2019-05-09T06:53:09.105Z,20.10
2019-05-09T06:55:38.713Z,20.18
2019-05-09T06:58:27.722Z,20.95
2019-05-09T07:01:07.718Z,21.74
2019-05-09T07:03:37.618Z,22.49
2019-05-09T07:06:32.019Z,22.28
2019-05-09T07:09:14.275Z,21.94
2019-05-09T07:11:43.781Z,22.44
2019-05-09T07:14:34.716Z,22.75
2019-05-09T07:17:04.859Z,23.87
2019-05-09T07:19:34.383Z,25.33
2019-05-09T07:22:13.453Z,25.65
2019-05-09T07:25:06.517Z,25.61
2019-05-09T07:27:33.825Z,26.13
2019-05-09T07:30:09.483Z,26.43
2019-05-09T07:32:44.061Z,26.25
2019-05-09T07:35:13.854Z,26.09
2019-05-09T07:37:43.319Z,25.48
2019-05-09T07:40:12.798Z,24.67
2019-05-09T07:42:42.259Z,23.84
2019-05-09T07:45:11.768Z,23.33
2019-05-09T07:47:41.258Z,23.17
2019-05-09T07:50:10.730Z,23.68
2019-05-09T07:52:40.250Z,24.10
2019-05-09T07:55:13.967Z,24.65
2019-05-09T07:57:47.412Z,25.11
2019-05-09T08:00:18.291Z,25.08
2019-05-09T08:02:49.304Z,24.42
2019-05-09T08:05:28.009Z,23.82
2019-05-09T08:07:58.545Z,23.53
2019-05-09T08:10:32.739Z,23.13
2019-05-09T08:12:59.526Z,23.06
2019-05-09T08:15:29.067Z,23.04
2019-05-09T08:17:59.307Z,22.92
2019-05-09T08:20:28.959Z,22.90
2019-05-09T08:23:01.937Z,22.89
2019-05-09T08:25:29.689Z,23.20
2019-05-09T08:27:59.193Z,23.44
2019-05-09T08:30:35.407Z,23.46
2019-05-09T08:33:00.193Z,23.60
2019-05-09T08:35:29.647Z,23.54
2019-05-09T08:37:59.204Z,23.47
2019-05-09T08:40:28.754Z,23.28
2019-05-09T08:42:59.005Z,23.37
2019-05-09T08:45:31.499Z,23.18
2019-05-09T08:48:00.030Z,23.05
2019-05-09T08:50:38.934Z,23.50
2019-05-09T08:53:08.349Z,23.60
2019-05-09T08:55:38.446Z,23.63
2019-05-09T08:58:08.307Z,23.73
2019-05-09T09:00:39.058Z,23.65
2019-05-09T09:03:08.964Z,23.67
2019-05-09T09:05:38.478Z,23.62
2019-05-09T09:08:08.579Z,23.42
2019-05-09T09:10:38.740Z,23.37
2019-05-09T09:13:09.089Z,23.50
2019-05-09T09:16:02.166Z,23.54
2019-05-09T09:18:09.079Z,23.63
2019-05-09T09:20:38.503Z,23.53
2019-05-09T09:23:08.881Z,23.82
2019-05-09T09:25:39.326Z,24.09
2019-05-09T09:28:09.151Z,24.20
2019-05-09T09:30:39.166Z,24.51
2019-05-09T09:33:13.181Z,24.58
2019-05-09T09:35:39.901Z,24.79
2019-05-09T09:38:09.641Z,25.13
2019-05-09T09:40:39.064Z,25.18
2019-05-09T09:43:09.343Z,25.52
2019-05-09T09:45:39.011Z,25.58
2019-05-09T09:48:09.195Z,25.35
2019-05-09T09:50:38.881Z,25.62
2019-05-09T09:53:09.116Z,25.57
2019-05-09T09:55:38.900Z,25.60
2019-05-09T09:58:08.500Z,25.73
2019-05-09T10:01:04.628Z,25.88
2019-05-09T10:03:35.180Z,25.62
2019-05-09T10:06:04.669Z,25.72
2019-05-09T10:08:34.539Z,26.13
2019-05-09T10:11:03.986Z,26.01
2019-05-09T10:13:33.603Z,26.22
2019-05-09T10:16:28.239Z,26.24
2019-05-09T10:19:08.309Z,26.78
2019-05-09T10:21:41.751Z,27.24
2019-05-09T10:24:11.222Z,27.05
2019-05-09T10:26:59.572Z,26.88
2019-05-09T10:29:29.352Z,26.81
2019-05-09T10:31:58.816Z,27.15
2019-05-09T10:34:28.923Z,27.75
2019-05-09T10:36:58.430Z,28.05
2019-05-09T10:39:27.885Z,28.37
2019-05-09T10:41:58.511Z,29.13
2019-05-09T10:44:41.375Z,29.44
2019-05-09T10:47:27.191Z,29.25
2019-05-09T10:49:58.185Z,29.37
2019-05-09T10:52:28.393Z,28.06
2019-05-09T10:54:58.215Z,28.01
2019-05-09T10:57:31.849Z,28.53
2019-05-09T10:59:59.074Z,28.34
2019-05-09T11:02:28.622Z,28.14
2019-05-09T11:04:58.129Z,28.24
2019-05-09T11:07:29.020Z,28.33
2019-05-09T11:09:59.076Z,28.30
2019-05-09T11:12:28.529Z,27.77
2019-05-09T11:14:59.358Z,27.34
2019-05-09T11:17:29.205Z,27.57
2019-05-09T11:19:59.054Z,27.41
2019-05-09T11:22:29.441Z,28.05
2019-05-09T11:24:59.104Z,28.42
2019-05-09T11:27:29.373Z,28.00
2019-05-09T11:29:58.914Z,27.71
2019-05-09T11:32:28.389Z,27.72
2019-05-09T11:34:57.881Z,27.30
2019-05-09T11:37:27.426Z,27.38
2019-05-09T11:39:57.981Z,27.35
2019-05-09T11:42:28.494Z,27.71
2019-05-09T11:44:58.465Z,27.73
2019-05-09T11:47:37.597Z,28.03
2019-05-09T11:49:59.114Z,28.33
2019-05-09T11:52:29.055Z,28.36
2019-05-09T11:54:58.529Z,28.44
2019-05-09T11:57:31.295Z,28.43
2019-05-09T11:59:59.299Z,28.45
2019-05-09T12:02:28.778Z,28.62
2019-05-09T12:04:58.277Z,28.92
2019-05-09T12:07:28.792Z,28.72
2019-05-09T12:09:59.120Z,28.32
2019-05-09T12:12:28.587Z,28.26
2019-05-09T12:14:58.305Z,28.28
2019-05-09T12:17:40.819Z,27.91
2019-05-09T12:20:09.480Z,27.71
2019-05-09T12:22:30.694Z,27.36
2019-05-09T12:25:00.173Z,27.75
2019-05-09T12:27:32.104Z,27.56
2019-05-09T12:30:01.566Z,28.46
2019-05-09T12:32:31.033Z,28.97
2019-05-09T12:35:00.942Z,29.18
2019-05-09T12:37:30.503Z,29.29
2019-05-09T12:40:00.015Z,29.60
2019-05-09T12:42:29.711Z,30.10
2019-05-09T12:44:59.325Z,30.05
2019-05-09T12:47:29.253Z,29.55
2019-05-09T12:50:02.703Z,29.37
2019-05-09T12:52:30.289Z,29.60
2019-05-09T12:55:00.839Z,29.72
2019-05-09T12:57:30.313Z,29.72
2019-05-09T12:59:59.938Z,29.66
2019-05-09T13:02:29.737Z,29.49
2019-05-09T13:04:59.225Z,29.55
2019-05-09T13:07:29.669Z,29.49
2019-05-09T13:09:59.462Z,29.12
2019-05-09T13:12:29.254Z,28.63
2019-05-09T13:14:58.857Z,28.85
2019-05-09T13:17:34.601Z,28.70
2019-05-09T13:20:04.944Z,28.58
2019-05-09T13:22:34.400Z,28.31
2019-05-09T13:25:04.261Z,27.53
2019-05-09T13:27:33.829Z,27.59
2019-05-09T13:30:03.738Z,28.05
2019-05-09T13:32:33.162Z,27.61
2019-05-09T13:35:02.658Z,27.29
2019-05-09T13:37:32.113Z,27.17
2019-05-09T13:40:01.580Z,27.29
2019-05-09T13:42:31.038Z,27.31
2019-05-09T13:45:00.491Z,27.44
2019-05-09T13:47:30.034Z,27.56
2019-05-09T13:49:59.537Z,27.77
2019-05-09T13:52:29.017Z,27.69
2019-05-09T13:54:58.746Z,27.52
2019-05-09T13:57:28.393Z,27.50
2019-05-09T13:59:59.631Z,27.09
2019-05-09T14:02:29.529Z,26.06
2019-05-09T14:04:59.266Z,25.87
2019-05-09T14:07:28.860Z,25.70
2019-05-09T14:09:58.316Z,25.30
2019-05-09T14:12:29.268Z,25.10
2019-05-09T14:14:58.727Z,24.95
2019-05-09T14:17:44.650Z,24.83
2019-05-09T14:19:59.416Z,24.66
2019-05-09T14:22:28.874Z,24.50
2019-05-09T14:24:58.612Z,24.17
2019-05-09T14:27:28.823Z,23.90
2019-05-09T14:29:59.581Z,23.70
2019-05-09T14:32:31.326Z,23.51
2019-05-09T14:35:00.477Z,23.16
2019-05-09T14:37:30.197Z,23.11
2019-05-09T14:40:04.475Z,23.17
2019-05-09T14:42:30.955Z,23.16
2019-05-09T14:45:00.389Z,23.09
2019-05-09T14:47:29.903Z,23.08
2019-05-09T14:49:59.739Z,23.14
2019-05-09T14:52:29.265Z,23.24
2019-05-09T14:54:58.755Z,23.23
2019-05-09T14:57:28.658Z,23.22
2019-05-09T14:59:58.553Z,23.13
2019-05-09T15:02:28.117Z,22.94
2019-05-09T15:04:58.609Z,22.67
2019-05-09T15:07:28.460Z,22.61
2019-05-09T15:09:59.944Z,22.41
2019-05-09T15:12:29.593Z,22.24
2019-05-09T15:14:59.039Z,22.22
2019-05-09T15:17:28.515Z,22.11
2019-05-09T15:20:00.595Z,21.96
2019-05-09T15:22:29.247Z,21.77
2019-05-09T15:24:59.182Z,21.49
2019-05-09T15:27:28.708Z,21.38
2019-05-09T15:29:58.581Z,21.28
2019-05-09T15:32:28.394Z,21.25
2019-05-09T15:34:57.900Z,21.16
2019-05-09T15:37:28.616Z,21.04
2019-05-09T15:39:58.378Z,21.01
2019-05-09T15:42:30.444Z,20.97
2019-05-09T15:44:59.093Z,20.88
2019-05-09T15:47:32.602Z,20.75
2019-05-09T15:50:15.591Z,20.71
2019-05-09T15:52:33.447Z,20.64
2019-05-09T15:55:02.956Z,20.59
2019-05-09T15:57:32.487Z,20.54
2019-05-09T16:00:01.929Z,20.43
2019-05-09T16:02:33.844Z,20.42
2019-05-09T16:05:04.119Z,20.36
2019-05-09T16:07:33.556Z,20.16
2019-05-09T16:10:03.055Z,19.79
2019-05-09T16:12:32.499Z,19.49
2019-05-09T16:15:01.941Z,19.25
2019-05-09T16:17:31.370Z,19.08
2019-05-09T16:20:00.801Z,18.89
2019-05-09T16:22:30.226Z,18.70
2019-05-09T16:24:59.659Z,18.64
2019-05-09T16:27:29.069Z,18.64
2019-05-09T16:29:58.459Z,18.68
2019-05-09T16:32:27.897Z,18.69
2019-05-09T16:34:57.316Z,18.71
2019-05-09T16:37:28.353Z,18.70
2019-05-09T16:39:57.831Z,18.57
2019-05-09T16:42:27.631Z,18.43
2019-05-09T16:44:59.313Z,18.36
2019-05-09T16:47:28.515Z,18.40
2019-05-09T16:49:58.102Z,18.45
2019-05-09T16:52:27.477Z,18.46
2019-05-09T16:55:08.266Z,18.53
2019-05-09T16:57:37.825Z,18.49
2019-05-09T17:00:08.028Z,18.48
2019-05-09T17:02:38.141Z,18.43
2019-05-09T17:05:08.464Z,18.36
2019-05-09T17:07:38.523Z,18.25
2019-05-09T17:10:08.479Z,18.14
2019-05-09T17:12:37.937Z,17.96
2019-05-09T17:15:08.506Z,17.83
2019-05-09T17:17:38.680Z,17.74
2019-05-09T17:20:10.064Z,17.66
2019-05-09T17:23:10.388Z,17.58
2019-05-09T17:25:28.444Z,17.54
2019-05-09T17:27:59.459Z,17.48
2019-05-09T17:30:29.017Z,17.47
2019-05-09T17:32:58.681Z,17.42
2019-05-09T17:35:28.121Z,17.37
2019-05-09T17:37:57.600Z,17.28
2019-05-09T17:40:28.099Z,17.15
2019-05-09T17:42:59.146Z,16.95
2019-05-09T17:45:28.788Z,16.94
2019-05-09T17:47:58.207Z,16.77
2019-05-09T17:50:28.422Z,16.72
2019-05-09T17:52:58.169Z,16.65
2019-05-09T17:55:27.603Z,16.54
2019-05-09T17:57:58.644Z,16.36
2019-05-09T18:00:28.284Z,16.09
2019-05-09T18:02:58.031Z,15.90
2019-05-09T18:05:27.515Z,15.70
2019-05-09T18:07:57.892Z,15.53
2019-05-09T18:10:27.431Z,15.42
2019-05-09T18:12:58.847Z,15.24
2019-05-09T18:15:28.319Z,15.18
2019-05-09T18:17:58.575Z,15.03
2019-05-09T18:20:28.509Z,14.99
2019-05-09T18:22:58.637Z,14.93
2019-05-09T18:25:28.364Z,14.84
2019-05-09T18:27:57.895Z,14.73
2019-05-09T18:30:27.900Z,14.63
2019-05-09T18:33:16.392Z,14.54
2019-05-09T18:35:48.372Z,14.53
2019-05-09T18:38:34.062Z,14.49
2019-05-09T18:41:07.004Z,14.41
2019-05-09T18:43:34.650Z,14.37
2019-05-09T18:46:04.114Z,14.32
2019-05-09T18:48:34.028Z,14.35
2019-05-09T18:51:11.234Z,14.25
2019-05-09T18:53:58.072Z,14.21
2019-05-09T18:56:39.403Z,14.22
2019-05-09T18:59:09.097Z,14.25
2019-05-09T19:01:38.525Z,14.18
2019-05-09T19:04:08.385Z,14.16
2019-05-09T19:06:39.772Z,14.12
2019-05-09T19:09:08.972Z,14.05
2019-05-09T19:11:38.404Z,14.01
2019-05-09T19:14:26.388Z,13.99
2019-05-09T19:17:25.295Z,14.00
2019-05-09T19:20:26.118Z,13.98
2019-05-09T19:22:56.429Z,13.97
2019-05-09T19:25:26.039Z,13.99
2019-05-09T19:27:55.468Z,14.00
2019-05-09T19:30:24.896Z,13.98
2019-05-09T19:32:54.310Z,14.01
2019-05-09T19:35:23.961Z,14.00
2019-05-09T19:37:53.388Z,14.02
2019-05-09T19:40:22.815Z,14.01
2019-05-09T19:42:52.456Z,14.01
2019-05-09T19:45:21.872Z,14.01
2019-05-09T19:47:51.395Z,14.02
2019-05-09T19:50:20.846Z,14.04
2019-05-09T19:52:50.268Z,14.05
2019-05-09T19:55:19.758Z,14.06
2019-05-09T19:57:49.186Z,14.03
2019-05-09T20:00:18.611Z,14.01
2019-05-09T20:02:48.039Z,14.02
2019-05-09T20:05:17.469Z,13.99
2019-05-09T20:07:46.897Z,13.96
2019-05-09T20:10:35.182Z,13.92
2019-05-09T20:13:29.523Z,13.88
2019-05-09T20:15:58.951Z,13.87
2019-05-09T20:18:28.382Z,13.86
2019-05-09T20:20:57.940Z,13.86
2019-05-09T20:23:27.336Z,13.87
2019-05-09T20:25:56.772Z,13.85
2019-05-09T20:28:26.306Z,13.87
2019-05-09T20:30:55.745Z,13.88
2019-05-09T20:33:25.152Z,13.89
2019-05-09T20:35:54.587Z,13.87
2019-05-09T20:38:24.204Z,13.85
2019-05-09T20:40:53.817Z,13.91
2019-05-09T20:43:23.442Z,13.88
2019-05-09T20:45:53.110Z,13.89
2019-05-09T20:48:22.712Z,13.89
2019-05-09T20:50:52.326Z,13.89
2019-05-09T20:53:21.940Z,13.90
2019-05-09T20:55:51.566Z,13.87
2019-05-09T20:58:21.179Z,13.83
2019-05-09T21:00:50.767Z,13.82
2019-05-09T21:03:20.395Z,13.77
2019-05-09T21:05:50.014Z,13.78
2019-05-09T21:08:19.619Z,13.77
2019-05-09T21:10:49.226Z,13.79
2019-05-09T21:13:18.917Z,13.77
2019-05-09T21:15:48.542Z,13.79
2019-05-09T21:18:18.220Z,13.81
2019-05-09T21:20:47.866Z,13.78
2019-05-09T21:23:24.877Z,13.76
2019-05-09T21:25:48.821Z,13.75
2019-05-09T21:28:18.416Z,13.75
2019-05-09T21:30:48.033Z,13.73
2019-05-09T21:33:17.633Z,13.74
2019-05-09T21:35:47.067Z,13.71
2019-05-09T21:38:16.512Z,13.71
2019-05-09T21:40:45.938Z,13.69
2019-05-09T21:43:15.381Z,13.65
2019-05-09T21:45:44.877Z,13.62
2019-05-09T21:48:14.394Z,13.62
2019-05-09T21:50:43.815Z,13.59
2019-05-09T21:53:13.263Z,13.60
2019-05-09T21:55:42.687Z,13.59
2019-05-09T21:58:12.104Z,13.60
2019-05-09T22:00:41.577Z,13.65
2019-05-09T22:03:11.038Z,13.63
2019-05-09T22:05:40.477Z,13.62
2019-05-09T22:08:09.919Z,13.62
2019-05-09T22:10:39.334Z,13.64
2019-05-09T22:13:08.768Z,13.67
2019-05-09T22:15:38.209Z,13.69
2019-05-09T22:18:07.696Z,13.66
2019-05-09T22:20:37.122Z,13.56
2019-05-09T22:23:06.851Z,13.48
2019-05-09T22:25:36.263Z,13.43
2019-05-09T22:28:05.691Z,13.43
2019-05-09T22:30:35.141Z,13.47
2019-05-09T22:33:04.617Z,13.51
2019-05-09T22:35:34.151Z,13.49
2019-05-09T22:38:03.587Z,13.49
2019-05-09T22:40:33.033Z,13.48
2019-05-09T22:43:02.452Z,13.48
2019-05-09T22:45:31.897Z,13.49
2019-05-09T22:48:01.327Z,13.49
2019-05-09T22:50:30.802Z,13.46
2019-05-09T22:53:00.242Z,13.43
2019-05-09T22:55:29.671Z,13.43
2019-05-09T22:57:59.082Z,13.39
2019-05-09T23:00:28.535Z,13.38
2019-05-09T23:02:57.972Z,13.36
2019-05-09T23:05:27.424Z,13.34
2019-05-09T23:07:56.835Z,13.33
2019-05-09T23:10:26.287Z,13.33
2019-05-09T23:12:55.721Z,13.34
2019-05-09T23:15:25.162Z,13.34
2019-05-09T23:17:54.612Z,13.34
2019-05-09T23:20:48.885Z,13.36
2019-05-09T23:23:39.923Z,13.38
2019-05-09T23:26:10.034Z,13.38
2019-05-09T23:28:39.552Z,13.38
2019-05-09T23:31:12.636Z,13.37
2019-05-09T23:33:42.676Z,13.35
2019-05-09T23:36:12.133Z,13.33
2019-05-09T23:38:59.098Z,13.31
2019-05-09T23:41:28.629Z,13.35
2019-05-09T23:43:58.052Z,13.35
2019-05-09T23:46:27.758Z,13.34
2019-05-09T23:48:57.204Z,13.35
2019-05-09T23:51:44.455Z,13.35
2019-05-09T23:54:45.082Z,13.38
2019-05-09T23:57:21.118Z,13.42
